sensor_id;sensor_type;location;lat;lon;timestamp;pressure;altitude;pressure_sealevel;temperature;humidity
78894;BME280;68282;42.698;23.350;2023-07-22T00:02:17;95338.91;;;27.90;41.08
78894;BME280;68282;42.698;23.350;2023-07-22T00:04:42;95340.22;;;27.93;41.42
78894;BME280;68282;42.698;23.350;2023-07-22T00:07:08;95343.81;;;27.93;40.71
78894;BME280;68282;42.698;23.350;2023-07-22T00:09:33;95345.66;;;27.89;41.18
78894;BME280;68282;42.698;23.350;2023-07-22T00:11:59;95360.13;;;27.91;41.05
78894;BME280;68282;42.698;23.350;2023-07-22T00:14:25;95354.31;;;27.84;41.52
78894;BME280;68282;42.698;23.350;2023-07-22T00:16:51;95354.06;;;27.89;41.35
78894;BME280;68282;42.698;23.350;2023-07-22T00:19:16;95357.78;;;27.93;41.36
78894;BME280;68282;42.698;23.350;2023-07-22T00:21:41;95355.69;;;27.90;41.66
78894;BME280;68282;42.698;23.350;2023-07-22T00:24:07;95349.19;;;27.86;41.70
78894;BME280;68282;42.698;23.350;2023-07-22T00:26:33;95357.22;;;27.88;41.97
78894;BME280;68282;42.698;23.350;2023-07-22T00:28:59;95346.59;;;27.81;42.37
78894;BME280;68282;42.698;23.350;2023-07-22T00:31:24;95357.56;;;27.86;42.24
78894;BME280;68282;42.698;23.350;2023-07-22T00:33:49;95344.88;;;27.76;42.47
78894;BME280;68282;42.698;23.350;2023-07-22T00:36:15;95359.31;;;27.78;42.98
78894;BME280;68282;42.698;23.350;2023-07-22T00:38:40;95355.94;;;27.73;42.96
78894;BME280;68282;42.698;23.350;2023-07-22T00:41:06;95354.19;;;27.68;43.04
78894;BME280;68282;42.698;23.350;2023-07-22T00:43:32;95355.94;;;27.73;43.05
78894;BME280;68282;42.698;23.350;2023-07-22T00:45:58;95361.88;;;27.71;43.25
78894;BME280;68282;42.698;23.350;2023-07-22T00:48:24;95351.16;;;27.61;43.56
78894;BME280;68282;42.698;23.350;2023-07-22T00:50:50;95364.41;;;27.64;43.74
78894;BME280;68282;42.698;23.350;2023-07-22T00:53:15;95355.56;;;27.62;43.63
78894;BME280;68282;42.698;23.350;2023-07-22T00:55:41;95365.56;;;27.63;43.61
78894;BME280;68282;42.698;23.350;2023-07-22T00:58:07;95370.25;;;27.59;43.90
78894;BME280;68282;42.698;23.350;2023-07-22T01:00:32;95364.53;;;27.55;43.95
78894;BME280;68282;42.698;23.350;2023-07-22T01:02:58;95363.94;;;27.62;44.00
78894;BME280;68282;42.698;23.350;2023-07-22T01:05:28;95355.44;;;27.58;44.04
78894;BME280;68282;42.698;23.350;2023-07-22T01:07:53;95353.22;;;27.52;44.09
78894;BME280;68282;42.698;23.350;2023-07-22T01:10:19;95360.56;;;27.56;44.25
78894;BME280;68282;42.698;23.350;2023-07-22T01:12:45;95353.22;;;27.52;44.35
78894;BME280;68282;42.698;23.350;2023-07-22T01:15:10;95344.03;;;27.51;43.59
78894;BME280;68282;42.698;23.350;2023-07-22T01:17:37;95351.47;;;27.47;43.43
78894;BME280;68282;42.698;23.350;2023-07-22T01:20:03;95350.75;;;27.38;42.85
78894;BME280;68282;42.698;23.350;2023-07-22T01:22:30;95348.31;;;27.36;43.17
78894;BME280;68282;42.698;23.350;2023-07-22T01:24:56;95355.84;;;27.36;43.11
78894;BME280;68282;42.698;23.350;2023-07-22T01:27:22;95358.19;;;27.34;43.28
78894;BME280;68282;42.698;23.350;2023-07-22T01:29:50;95346.69;;;27.35;43.08
78894;BME280;68282;42.698;23.350;2023-07-22T01:32:16;95340.50;;;27.29;43.21
78894;BME280;68282;42.698;23.350;2023-07-22T01:34:42;95332.44;;;27.15;43.13
78894;BME280;68282;42.698;23.350;2023-07-22T01:37:07;95340.25;;;27.22;43.16
78894;BME280;68282;42.698;23.350;2023-07-22T01:39:35;95335.00;;;27.21;43.34
78894;BME280;68282;42.698;23.350;2023-07-22T01:42:01;95334.88;;;27.17;43.64
78894;BME280;68282;42.698;23.350;2023-07-22T01:44:27;95329.28;;;27.05;43.66
78894;BME280;68282;42.698;23.350;2023-07-22T01:46:53;95336.84;;;27.04;43.53
78894;BME280;68282;42.698;23.350;2023-07-22T01:49:18;95336.28;;;27.11;43.17
78894;BME280;68282;42.698;23.350;2023-07-22T01:51:44;95321.25;;;27.03;43.76
78894;BME280;68282;42.698;23.350;2023-07-22T01:54:10;95329.06;;;27.10;43.45
78894;BME280;68282;42.698;23.350;2023-07-22T01:56:36;95335.81;;;27.09;43.89
78894;BME280;68282;42.698;23.350;2023-07-22T01:59:02;95332.53;;;27.07;44.20
78894;BME280;68282;42.698;23.350;2023-07-22T02:01:28;95319.97;;;27.00;44.39
78894;BME280;68282;42.698;23.350;2023-07-22T02:03:54;95326.25;;;26.97;44.20
78894;BME280;68282;42.698;23.350;2023-07-22T02:06:19;95314.13;;;26.93;44.87
78894;BME280;68282;42.698;23.350;2023-07-22T02:08:45;95326.91;;;26.94;45.08
78894;BME280;68282;42.698;23.350;2023-07-22T02:11:11;95334.22;;;26.87;45.56
78894;BME280;68282;42.698;23.350;2023-07-22T02:13:36;95324.22;;;26.85;46.09
78894;BME280;68282;42.698;23.350;2023-07-22T02:16:02;95326.88;;;26.82;46.80
78894;BME280;68282;42.698;23.350;2023-07-22T02:18:28;95336.09;;;26.82;46.75
78894;BME280;68282;42.698;23.350;2023-07-22T02:20:55;95324.28;;;26.77;46.79
78894;BME280;68282;42.698;23.350;2023-07-22T02:23:21;95335.97;;;26.79;46.91
78894;BME280;68282;42.698;23.350;2023-07-22T02:25:50;95344.31;;;26.79;47.18
78894;BME280;68282;42.698;23.350;2023-07-22T02:28:17;95342.97;;;26.76;47.15
78894;BME280;68282;42.698;23.350;2023-07-22T02:30:52;95340.91;;;26.73;47.56
78894;BME280;68282;42.698;23.350;2023-07-22T02:33:19;95339.72;;;26.74;47.24
78894;BME280;68282;42.698;23.350;2023-07-22T02:35:46;95339.34;;;26.63;47.64
78894;BME280;68282;42.698;23.350;2023-07-22T02:38:12;95344.31;;;26.58;48.01
78894;BME280;68282;42.698;23.350;2023-07-22T02:40:39;95349.53;;;26.59;48.16
78894;BME280;68282;42.698;23.350;2023-07-22T02:43:05;95345.00;;;26.54;48.38
78894;BME280;68282;42.698;23.350;2023-07-22T02:45:35;95340.00;;;26.60;48.20
78894;BME280;68282;42.698;23.350;2023-07-22T02:48:01;95339.09;;;26.56;48.39
78894;BME280;68282;42.698;23.350;2023-07-22T02:50:26;95345.34;;;26.53;48.18
78894;BME280;68282;42.698;23.350;2023-07-22T02:52:52;95344.84;;;26.51;48.46
78894;BME280;68282;42.698;23.350;2023-07-22T02:55:18;95343.09;;;26.46;48.53
78894;BME280;68282;42.698;23.350;2023-07-22T02:57:47;95353.56;;;26.49;48.45
78894;BME280;68282;42.698;23.350;2023-07-22T03:00:14;95347.03;;;26.45;48.63
78894;BME280;68282;42.698;23.350;2023-07-22T03:02:49;95349.81;;;26.45;48.73
78894;BME280;68282;42.698;23.350;2023-07-22T03:05:16;95344.91;;;26.42;49.02
78894;BME280;68282;42.698;23.350;2023-07-22T03:07:41;95350.66;;;26.46;49.05
78894;BME280;68282;42.698;23.350;2023-07-22T03:10:08;95344.47;;;26.40;48.92
78894;BME280;68282;42.698;23.350;2023-07-22T03:12:33;95352.97;;;26.44;48.87
78894;BME280;68282;42.698;23.350;2023-07-22T03:14:59;95346.44;;;26.39;48.88
78894;BME280;68282;42.698;23.350;2023-07-22T03:17:24;95352.00;;;26.39;49.13
78894;BME280;68282;42.698;23.350;2023-07-22T03:19:50;95352.22;;;26.34;49.52
78894;BME280;68282;42.698;23.350;2023-07-22T03:22:17;95356.34;;;26.28;49.62
78894;BME280;68282;42.698;23.350;2023-07-22T03:24:43;95349.28;;;26.31;49.32
78894;BME280;68282;42.698;23.350;2023-07-22T03:27:09;95351.25;;;26.30;49.60
78894;BME280;68282;42.698;23.350;2023-07-22T03:29:35;95355.88;;;26.26;49.85
78894;BME280;68282;42.698;23.350;2023-07-22T03:32:01;95366.84;;;26.31;49.81
78894;BME280;68282;42.698;23.350;2023-07-22T03:34:27;95380.91;;;26.35;49.77
78894;BME280;68282;42.698;23.350;2023-07-22T03:36:53;95376.34;;;26.30;49.95
78894;BME280;68282;42.698;23.350;2023-07-22T03:39:18;95375.25;;;26.22;49.34
78894;BME280;68282;42.698;23.350;2023-07-22T03:41:44;95383.25;;;26.24;49.50
78894;BME280;68282;42.698;23.350;2023-07-22T03:44:09;95397.91;;;26.21;48.86
78894;BME280;68282;42.698;23.350;2023-07-22T03:46:35;95393.81;;;26.18;48.04
78894;BME280;68282;42.698;23.350;2023-07-22T03:49:00;95387.06;;;26.19;48.14
78894;BME280;68282;42.698;23.350;2023-07-22T03:51:26;95393.34;;;26.16;47.51
78894;BME280;68282;42.698;23.350;2023-07-22T03:53:51;95400.75;;;26.03;46.59
78894;BME280;68282;42.698;23.350;2023-07-22T03:56:17;95402.38;;;26.04;46.97
78894;BME280;68282;42.698;23.350;2023-07-22T03:58:42;95392.38;;;26.03;46.98
78894;BME280;68282;42.698;23.350;2023-07-22T04:01:11;95409.09;;;26.03;47.11
78894;BME280;68282;42.698;23.350;2023-07-22T04:03:36;95401.28;;;25.97;47.22
78894;BME280;68282;42.698;23.350;2023-07-22T04:06:02;95405.25;;;25.96;47.56
78894;BME280;68282;42.698;23.350;2023-07-22T04:08:27;95402.09;;;25.97;47.21
78894;BME280;68282;42.698;23.350;2023-07-22T04:10:56;95404.53;;;25.99;47.42
78894;BME280;68282;42.698;23.350;2023-07-22T04:13:24;95402.72;;;26.03;47.56
78894;BME280;68282;42.698;23.350;2023-07-22T04:15:50;95406.00;;;26.05;47.74
78894;BME280;68282;42.698;23.350;2023-07-22T04:18:17;95406.66;;;26.02;47.10
78894;BME280;68282;42.698;23.350;2023-07-22T04:20:43;95407.16;;;26.04;47.66
78894;BME280;68282;42.698;23.350;2023-07-22T04:23:08;95399.47;;;26.01;47.71
78894;BME280;68282;42.698;23.350;2023-07-22T04:25:39;95405.31;;;26.08;47.76
78894;BME280;68282;42.698;23.350;2023-07-22T04:28:04;95408.09;;;26.08;48.27
78894;BME280;68282;42.698;23.350;2023-07-22T04:30:30;95411.88;;;26.12;48.24
78894;BME280;68282;42.698;23.350;2023-07-22T04:32:55;95427.47;;;26.13;48.47
78894;BME280;68282;42.698;23.350;2023-07-22T04:35:21;95419.44;;;26.12;48.80
78894;BME280;68282;42.698;23.350;2023-07-22T04:37:47;95421.75;;;26.10;48.97
78894;BME280;68282;42.698;23.350;2023-07-22T04:40:13;95427.81;;;26.12;49.22
78894;BME280;68282;42.698;23.350;2023-07-22T04:42:44;95430.72;;;26.15;49.12
78894;BME280;68282;42.698;23.350;2023-07-22T04:45:10;95422.38;;;26.06;49.34
78894;BME280;68282;42.698;23.350;2023-07-22T04:47:39;95426.66;;;26.13;48.98
78894;BME280;68282;42.698;23.350;2023-07-22T04:50:05;95417.00;;;26.01;49.49
78894;BME280;68282;42.698;23.350;2023-07-22T04:52:35;95414.84;;;26.07;50.00
78894;BME280;68282;42.698;23.350;2023-07-22T04:55:00;95414.69;;;26.03;49.88
78894;BME280;68282;42.698;23.350;2023-07-22T04:57:27;95429.44;;;26.13;49.53
78894;BME280;68282;42.698;23.350;2023-07-22T04:59:52;95423.53;;;26.14;49.56
78894;BME280;68282;42.698;23.350;2023-07-22T05:02:18;95422.88;;;26.08;49.63
78894;BME280;68282;42.698;23.350;2023-07-22T05:04:44;95428.97;;;26.11;49.76
78894;BME280;68282;42.698;23.350;2023-07-22T05:07:09;95444.81;;;26.19;50.12
78894;BME280;68282;42.698;23.350;2023-07-22T05:09:36;95448.75;;;26.18;50.06
78894;BME280;68282;42.698;23.350;2023-07-22T05:12:01;95439.75;;;26.12;50.30
78894;BME280;68282;42.698;23.350;2023-07-22T05:14:27;95442.44;;;25.91;50.67
78894;BME280;68282;42.698;23.350;2023-07-22T05:16:52;95442.56;;;26.03;50.66
78894;BME280;68282;42.698;23.350;2023-07-22T05:19:18;95442.56;;;26.03;50.31
78894;BME280;68282;42.698;23.350;2023-07-22T05:21:44;95439.34;;;25.92;51.12
78894;BME280;68282;42.698;23.350;2023-07-22T05:24:09;95439.75;;;26.03;51.16
78894;BME280;68282;42.698;23.350;2023-07-22T05:26:34;95437.31;;;26.02;50.89
78894;BME280;68282;42.698;23.350;2023-07-22T05:29:00;95432.13;;;25.91;51.10
78894;BME280;68282;42.698;23.350;2023-07-22T05:31:25;95437.69;;;26.00;51.01
78894;BME280;68282;42.698;23.350;2023-07-22T05:33:51;95450.41;;;26.10;51.12
78894;BME280;68282;42.698;23.350;2023-07-22T05:36:16;95449.91;;;26.17;51.01
78894;BME280;68282;42.698;23.350;2023-07-22T05:38:42;95456.97;;;26.14;50.96
78894;BME280;68282;42.698;23.350;2023-07-22T05:41:07;95437.59;;;26.18;50.93
78894;BME280;68282;42.698;23.350;2023-07-22T05:43:32;95454.28;;;26.27;50.67
78894;BME280;68282;42.698;23.350;2023-07-22T05:45:58;95451.81;;;26.25;51.18
78894;BME280;68282;42.698;23.350;2023-07-22T05:48:23;95449.50;;;26.27;51.11
78894;BME280;68282;42.698;23.350;2023-07-22T05:50:49;95450.63;;;26.35;51.03
78894;BME280;68282;42.698;23.350;2023-07-22T05:53:14;95444.88;;;26.40;51.11
78894;BME280;68282;42.698;23.350;2023-07-22T05:55:40;95447.16;;;26.38;50.92
78894;BME280;68282;42.698;23.350;2023-07-22T05:58:05;95444.03;;;26.39;50.50
78894;BME280;68282;42.698;23.350;2023-07-22T06:00:33;95443.16;;;26.48;51.32
78894;BME280;68282;42.698;23.350;2023-07-22T06:02:58;95440.03;;;26.49;50.79
78894;BME280;68282;42.698;23.350;2023-07-22T06:05:24;95457.44;;;26.46;51.09
78894;BME280;68282;42.698;23.350;2023-07-22T06:07:49;95460.84;;;26.52;51.20
78894;BME280;68282;42.698;23.350;2023-07-22T06:10:15;95465.94;;;26.50;49.82
78894;BME280;68282;42.698;23.350;2023-07-22T06:12:40;95471.53;;;26.50;50.48
78894;BME280;68282;42.698;23.350;2023-07-22T06:15:07;95472.34;;;26.50;50.80
78894;BME280;68282;42.698;23.350;2023-07-22T06:17:32;95478.38;;;26.52;51.12
78894;BME280;68282;42.698;23.350;2023-07-22T06:19:58;95482.63;;;26.59;50.77
78894;BME280;68282;42.698;23.350;2023-07-22T06:22:23;95482.63;;;26.59;51.04
78894;BME280;68282;42.698;23.350;2023-07-22T06:24:49;95477.66;;;26.64;51.21
78894;BME280;68282;42.698;23.350;2023-07-22T06:27:15;95484.19;;;26.68;51.52
78894;BME280;68282;42.698;23.350;2023-07-22T06:29:40;95477.94;;;26.72;51.63
78894;BME280;68282;42.698;23.350;2023-07-22T06:32:06;95483.50;;;26.80;51.23
78894;BME280;68282;42.698;23.350;2023-07-22T06:34:31;95479.69;;;26.76;50.87
78894;BME280;68282;42.698;23.350;2023-07-22T06:36:57;95482.50;;;26.76;50.56
78894;BME280;68282;42.698;23.350;2023-07-22T06:39:22;95487.56;;;26.83;50.73
78894;BME280;68282;42.698;23.350;2023-07-22T06:41:48;95492.47;;;26.86;50.64
78894;BME280;68282;42.698;23.350;2023-07-22T06:44:13;95487.50;;;26.92;50.68
78894;BME280;68282;42.698;23.350;2023-07-22T06:46:39;95487.28;;;26.97;50.79
78894;BME280;68282;42.698;23.350;2023-07-22T06:49:04;95487.28;;;26.97;51.21
78894;BME280;68282;42.698;23.350;2023-07-22T06:51:29;95484.19;;;26.98;51.17
78894;BME280;68282;42.698;23.350;2023-07-22T06:53:55;95487.22;;;27.06;50.72
78894;BME280;68282;42.698;23.350;2023-07-22T06:56:20;95468.91;;;26.96;51.43
78894;BME280;68282;42.698;23.350;2023-07-22T06:58:46;95473.06;;;27.11;51.34
78894;BME280;68282;42.698;23.350;2023-07-22T07:01:12;95465.50;;;27.11;51.05
78894;BME280;68282;42.698;23.350;2023-07-22T07:03:37;95473.19;;;27.14;51.18
78894;BME280;68282;42.698;23.350;2023-07-22T07:06:03;95472.38;;;27.14;50.76
78894;BME280;68282;42.698;23.350;2023-07-22T07:08:28;95467.00;;;27.09;51.25
78894;BME280;68282;42.698;23.350;2023-07-22T07:10:54;95465.31;;;27.16;50.75
78894;BME280;68282;42.698;23.350;2023-07-22T07:13:19;95464.28;;;27.21;50.15
78894;BME280;68282;42.698;23.350;2023-07-22T07:15:47;95470.59;;;27.30;49.86
78894;BME280;68282;42.698;23.350;2023-07-22T07:18:16;95468.72;;;27.35;49.48
78894;BME280;68282;42.698;23.350;2023-07-22T07:20:41;95459.19;;;27.36;48.92
78894;BME280;68282;42.698;23.350;2023-07-22T07:23:07;95455.66;;;27.48;48.64
78894;BME280;68282;42.698;23.350;2023-07-22T07:25:32;95460.63;;;27.42;48.28
78894;BME280;68282;42.698;23.350;2023-07-22T07:27:57;95446.97;;;27.40;48.46
78894;BME280;68282;42.698;23.350;2023-07-22T07:30:23;95448.56;;;27.50;49.00
78894;BME280;68282;42.698;23.350;2023-07-22T07:32:48;95444.63;;;27.51;48.74
78894;BME280;68282;42.698;23.350;2023-07-22T07:35:14;95452.91;;;27.60;48.40
78894;BME280;68282;42.698;23.350;2023-07-22T07:37:39;95454.41;;;27.70;48.62
78894;BME280;68282;42.698;23.350;2023-07-22T07:40:05;95453.06;;;27.76;48.63
78894;BME280;68282;42.698;23.350;2023-07-22T07:42:31;95442.78;;;27.68;48.56
78894;BME280;68282;42.698;23.350;2023-07-22T07:44:56;95445.81;;;27.75;47.36
78894;BME280;68282;42.698;23.350;2023-07-22T07:47:22;95442.69;;;27.76;47.56
78894;BME280;68282;42.698;23.350;2023-07-22T07:49:47;95439.06;;;27.76;47.71
78894;BME280;68282;42.698;23.350;2023-07-22T07:52:14;95444.56;;;27.72;47.85
78894;BME280;68282;42.698;23.350;2023-07-22T07:54:39;95445.47;;;27.76;48.76
78894;BME280;68282;42.698;23.350;2023-07-22T07:57:05;95436.75;;;27.78;47.62
78894;BME280;68282;42.698;23.350;2023-07-22T07:59:30;95426.97;;;27.84;47.69
78894;BME280;68282;42.698;23.350;2023-07-22T08:01:56;95429.78;;;27.97;47.54
78894;BME280;68282;42.698;23.350;2023-07-22T08:04:21;95444.34;;;28.02;47.39
78894;BME280;68282;42.698;23.350;2023-07-22T08:06:47;95439.66;;;28.06;46.86
78894;BME280;68282;42.698;23.350;2023-07-22T08:09:12;95424.78;;;28.02;46.93
78894;BME280;68282;42.698;23.350;2023-07-22T08:11:44;95428.19;;;28.08;47.19
78894;BME280;68282;42.698;23.350;2023-07-22T08:14:09;95429.94;;;28.13;47.04
78894;BME280;68282;42.698;23.350;2023-07-22T08:16:35;95423.97;;;28.14;46.55
78894;BME280;68282;42.698;23.350;2023-07-22T08:19:00;95420.44;;;28.05;46.60
78894;BME280;68282;42.698;23.350;2023-07-22T08:21:26;95416.84;;;27.92;47.22
78894;BME280;68282;42.698;23.350;2023-07-22T08:23:51;95422.31;;;28.01;47.53
78894;BME280;68282;42.698;23.350;2023-07-22T08:26:17;95430.72;;;28.13;47.34
78894;BME280;68282;42.698;23.350;2023-07-22T08:28:46;95426.28;;;28.12;47.27
78894;BME280;68282;42.698;23.350;2023-07-22T08:31:11;95428.63;;;28.22;46.37
78894;BME280;68282;42.698;23.350;2023-07-22T08:33:37;95409.50;;;28.24;46.30
78894;BME280;68282;42.698;23.350;2023-07-22T08:36:02;95409.03;;;28.35;46.76
78894;BME280;68282;42.698;23.350;2023-07-22T08:38:28;95413.56;;;28.39;46.72
78894;BME280;68282;42.698;23.350;2023-07-22T08:40:54;95404.34;;;28.51;46.13
78894;BME280;68282;42.698;23.350;2023-07-22T08:43:21;95406.47;;;28.54;45.96
78894;BME280;68282;42.698;23.350;2023-07-22T08:45:48;95400.38;;;28.65;46.15
78894;BME280;68282;42.698;23.350;2023-07-22T08:48:16;95390.81;;;28.66;46.10
78894;BME280;68282;42.698;23.350;2023-07-22T08:50:51;95397.19;;;28.79;45.89
78894;BME280;68282;42.698;23.350;2023-07-22T08:53:18;95376.34;;;28.64;45.85
78894;BME280;68282;42.698;23.350;2023-07-22T08:55:45;95374.81;;;28.79;45.60
78894;BME280;68282;42.698;23.350;2023-07-22T08:58:14;95367.88;;;28.89;45.32
78894;BME280;68282;42.698;23.350;2023-07-22T09:00:39;95364.59;;;28.99;45.74
78894;BME280;68282;42.698;23.350;2023-07-22T09:03:06;95372.09;;;29.11;45.09
78894;BME280;68282;42.698;23.350;2023-07-22T09:05:35;95375.38;;;29.13;43.94
78894;BME280;68282;42.698;23.350;2023-07-22T09:08:06;95376.22;;;29.01;43.88
78894;BME280;68282;42.698;23.350;2023-07-22T09:10:32;95373.22;;;28.94;44.46
78894;BME280;68282;42.698;23.350;2023-07-22T09:12:59;95369.72;;;28.97;45.16
78894;BME280;68282;42.698;23.350;2023-07-22T09:15:26;95375.47;;;29.16;44.57
78894;BME280;68282;42.698;23.350;2023-07-22T09:17:51;95365.81;;;29.30;43.50
78894;BME280;68282;42.698;23.350;2023-07-22T09:20:17;95364.41;;;29.36;42.72
78894;BME280;68282;42.698;23.350;2023-07-22T09:22:45;95367.22;;;29.52;43.59
78894;BME280;68282;42.698;23.350;2023-07-22T09:25:16;95367.75;;;29.58;44.04
78894;BME280;68282;42.698;23.350;2023-07-22T09:27:42;95365.78;;;29.58;42.18
78894;BME280;68282;42.698;23.350;2023-07-22T09:30:33;95361.97;;;29.51;42.61
78894;BME280;68282;42.698;23.350;2023-07-22T09:33:03;95357.19;;;29.51;43.60
78894;BME280;68282;42.698;23.350;2023-07-22T09:38:07;95352.66;;;29.78;42.15
78894;BME280;68282;42.698;23.350;2023-07-22T09:40:33;95350.75;;;29.83;42.25
78894;BME280;68282;42.698;23.350;2023-07-22T09:43:01;95344.59;;;29.93;42.74
78894;BME280;68282;42.698;23.350;2023-07-22T09:45:30;95344.38;;;29.98;42.49
78894;BME280;68282;42.698;23.350;2023-07-22T09:47:55;95344.69;;;30.13;41.97
78894;BME280;68282;42.698;23.350;2023-07-22T09:50:23;95340.44;;;30.19;41.03
78894;BME280;68282;42.698;23.350;2023-07-22T09:52:54;95333.34;;;30.25;40.98
78894;BME280;68282;42.698;23.350;2023-07-22T09:55:22;95330.78;;;30.36;40.64
78894;BME280;68282;42.698;23.350;2023-07-22T09:58:02;95338.25;;;30.48;40.50
78894;BME280;68282;42.698;23.350;2023-07-22T10:00:33;95331.53;;;30.52;39.91
78894;BME280;68282;42.698;23.350;2023-07-22T10:03:00;95325.44;;;30.66;39.29
78894;BME280;68282;42.698;23.350;2023-07-22T10:05:27;95323.28;;;30.60;39.64
78894;BME280;68282;42.698;23.350;2023-07-22T10:07:58;95315.47;;;30.69;39.44
78894;BME280;68282;42.698;23.350;2023-07-22T10:10:35;95313.38;;;30.85;38.16
78894;BME280;68282;42.698;23.350;2023-07-22T10:13:00;95314.34;;;30.93;38.50
78894;BME280;68282;42.698;23.350;2023-07-22T10:15:29;95326.16;;;31.03;38.89
78894;BME280;68282;42.698;23.350;2023-07-22T10:17:55;95315.50;;;31.12;39.03
78894;BME280;68282;42.698;23.350;2023-07-22T10:20:21;95309.91;;;31.12;38.77
78894;BME280;68282;42.698;23.350;2023-07-22T10:22:49;95304.50;;;31.23;38.49
78894;BME280;68282;42.698;23.350;2023-07-22T10:25:18;95305.72;;;31.25;38.95
78894;BME280;68282;42.698;23.350;2023-07-22T10:27:44;95288.13;;;31.28;38.19
78894;BME280;68282;42.698;23.350;2023-07-22T10:30:11;95299.31;;;31.48;37.64
78894;BME280;68282;42.698;23.350;2023-07-22T10:32:45;95291.88;;;31.59;37.74
78894;BME280;68282;42.698;23.350;2023-07-22T10:35:14;95299.00;;;31.76;39.04
78894;BME280;68282;42.698;23.350;2023-07-22T10:37:44;95297.81;;;31.77;35.58
78894;BME280;68282;42.698;23.350;2023-07-22T10:40:17;95293.59;;;31.91;36.09
78894;BME280;68282;42.698;23.350;2023-07-22T10:43:12;95296.25;;;32.07;34.65
78894;BME280;68282;42.698;23.350;2023-07-22T10:45:42;95285.25;;;32.25;34.36
78894;BME280;68282;42.698;23.350;2023-07-22T10:48:10;95281.25;;;32.26;32.00
78894;BME280;68282;42.698;23.350;2023-07-22T10:50:51;95287.94;;;32.45;31.85
78894;BME280;68282;42.698;23.350;2023-07-22T10:58:33;95283.38;;;32.67;32.29
78894;BME280;68282;42.698;23.350;2023-07-22T11:04:28;95280.94;;;32.96;31.26
78894;BME280;68282;42.698;23.350;2023-07-22T11:06:58;95266.97;;;33.10;30.64
78894;BME280;68282;42.698;23.350;2023-07-22T11:11:56;95275.53;;;33.18;29.83
78894;BME280;68282;42.698;23.350;2023-07-22T11:14:28;95262.25;;;33.22;29.57
78894;BME280;68282;42.698;23.350;2023-07-22T11:16:57;95261.53;;;33.28;30.09
78894;BME280;68282;42.698;23.350;2023-07-22T11:19:26;95279.19;;;33.25;29.25
78894;BME280;68282;42.698;23.350;2023-07-22T11:21:54;95261.56;;;33.32;29.62
78894;BME280;68282;42.698;23.350;2023-07-22T11:24:21;95265.28;;;33.40;29.53
78894;BME280;68282;42.698;23.350;2023-07-22T11:26:48;95266.19;;;33.51;29.93
78894;BME280;68282;42.698;23.350;2023-07-22T11:29:14;95262.19;;;33.56;29.18
78894;BME280;68282;42.698;23.350;2023-07-22T11:31:45;95261.31;;;33.48;29.15
78894;BME280;68282;42.698;23.350;2023-07-22T11:34:11;95265.72;;;33.45;29.37
78894;BME280;68282;42.698;23.350;2023-07-22T11:36:37;95251.88;;;33.29;29.31
78894;BME280;68282;42.698;23.350;2023-07-22T11:39:14;95249.25;;;33.48;29.71
78894;BME280;68282;42.698;23.350;2023-07-22T11:41:41;95243.72;;;33.62;30.01
78894;BME280;68282;42.698;23.350;2023-07-22T11:44:07;95241.38;;;33.71;29.08
78894;BME280;68282;42.698;23.350;2023-07-22T11:49:25;95234.75;;;34.05;28.90
78894;BME280;68282;42.698;23.350;2023-07-22T11:51:54;95239.63;;;34.12;28.53
78894;BME280;68282;42.698;23.350;2023-07-22T11:54:21;95234.78;;;34.09;28.80
78894;BME280;68282;42.698;23.350;2023-07-22T11:56:47;95234.72;;;33.98;28.90
78894;BME280;68282;42.698;23.350;2023-07-22T11:59:12;95230.75;;;34.13;28.34
78894;BME280;68282;42.698;23.350;2023-07-22T12:01:37;95236.06;;;34.22;28.69
78894;BME280;68282;42.698;23.350;2023-07-22T12:04:10;95228.44;;;34.33;28.28
78894;BME280;68282;42.698;23.350;2023-07-22T12:06:36;95229.34;;;34.48;29.35
78894;BME280;68282;42.698;23.350;2023-07-22T12:09:02;95216.91;;;34.64;28.63
78894;BME280;68282;42.698;23.350;2023-07-22T12:11:32;95214.50;;;34.80;28.51
78894;BME280;68282;42.698;23.350;2023-07-22T12:14:11;95225.81;;;34.77;28.77
78894;BME280;68282;42.698;23.350;2023-07-22T12:16:39;95222.63;;;34.82;28.06
78894;BME280;68282;42.698;23.350;2023-07-22T12:19:08;95219.38;;;34.80;28.34
78894;BME280;68282;42.698;23.350;2023-07-22T12:21:35;95213.72;;;34.87;28.20
78894;BME280;68282;42.698;23.350;2023-07-22T12:24:01;95208.94;;;34.91;28.20
78894;BME280;68282;42.698;23.350;2023-07-22T12:26:27;95208.56;;;35.00;28.85
78894;BME280;68282;42.698;23.350;2023-07-22T12:28:53;95215.41;;;35.06;28.72
78894;BME280;68282;42.698;23.350;2023-07-22T12:31:19;95202.44;;;34.91;27.79
78894;BME280;68282;42.698;23.350;2023-07-22T12:33:44;95208.94;;;34.91;27.84
78894;BME280;68282;42.698;23.350;2023-07-22T12:36:10;95199.59;;;34.80;28.05
78894;BME280;68282;42.698;23.350;2023-07-22T12:38:36;95198.34;;;34.63;28.58
78894;BME280;68282;42.698;23.350;2023-07-22T12:41:01;95198.28;;;34.52;28.22
78894;BME280;68282;42.698;23.350;2023-07-22T12:43:27;95208.84;;;34.73;28.77
78894;BME280;68282;42.698;23.350;2023-07-22T12:45:53;95196.78;;;34.87;26.99
78894;BME280;68282;42.698;23.350;2023-07-22T12:48:18;95203.28;;;35.02;27.54
78894;BME280;68282;42.698;23.350;2023-07-22T12:50:44;95185.13;;;35.18;27.48
78894;BME280;68282;42.698;23.350;2023-07-22T12:53:10;95179.47;;;35.18;27.32
78894;BME280;68282;42.698;23.350;2023-07-22T12:55:35;95180.72;;;35.31;27.40
78894;BME280;68282;42.698;23.350;2023-07-22T12:58:01;95183.13;;;35.36;28.56
78894;BME280;68282;42.698;23.350;2023-07-22T13:00:27;95186.38;;;35.49;26.72
78894;BME280;68282;42.698;23.350;2023-07-22T13:02:52;95180.69;;;35.67;25.25
78894;BME280;68282;42.698;23.350;2023-07-22T13:05:18;95172.22;;;35.64;25.79